Time;durP1;ratioP1;P1;durP2;ratioP2;P2;SDS_P1;SDS_P2;PMS_P1;PMS_P2;Temp;Humidity;BMP_temperature;BMP_pressure;BME280_temperature;BME280_humidity;BME280_pressure;Samples;Min_cycle;Max_cycle;Signal;HPM_P1;HPM_P2
2022/12/01 00:00:09;;;;;;;;;;;;;;;;;;10502314;28;19928;-64
2022/12/01 00:05:11;;;;;;;;;;;;;;;;;;10500934;28;19932;-63
2022/12/01 00:10:25;;;;;;;;;;;;;;;;;;10501691;28;19925;-63
2022/12/01 00:15:27;;;;;;;;;;;;;;;;;;10500178;28;19932;-63
2022/12/01 00:20:29;;;;;;;;;;;;;;;;;;10501265;28;19924;-63
2022/12/01 00:25:31;;;;;;;;;;;;;;;;;;10499244;28;19929;-63
2022/12/01 00:30:34;;;;;;;;;;;;;;;;;;10500839;28;19925;-64
2022/12/01 00:35:36;;;;;;;;;;;;;;;;;;10500562;28;19970;-63
2022/12/01 00:40:38;;;;;;;;;;;;;;;;;;10500497;28;19924;-64
2022/12/01 00:45:40;;;;;;;;;;;;;;;;;;10499256;28;20432;-64
2022/12/01 00:50:42;;;;;;;;;;;;;;;;;;10499300;28;20268;-63
2022/12/01 00:55:44;;;;;;;;;;;;;;;;;;10499569;28;19932;-63
2022/12/01 01:00:46;;;;;;;;;;;;;;;;;;10498664;28;19970;-63
2022/12/01 01:05:48;;;;;;;;;;;;;;;;;;10499423;28;20023;-63
2022/12/01 01:10:50;;;;;;;;;;;;;;;;;;10498871;28;20399;-63
2022/12/01 01:15:52;;;;;;;;;;;;;;;;;;10498978;28;19947;-64
2022/12/01 01:20:55;;;;;;;;;;;;;;;;;;10499142;28;19924;-63
2022/12/01 01:25:57;;;;;;;;;;;;;;;;;;10498187;28;19925;-63
2022/12/01 01:30:59;;;;;;;;;;;;;;;;;;10499022;28;19974;-63
2022/12/01 01:36:25;;;;;;;;;;;;;;;;;;10497768;28;19913;-63
2022/12/01 01:41:27;;;;;;;;;;;;;;;;;;10498226;28;20287;-63
2022/12/01 01:46:29;;;;;;;;;;;;;;;;;;10498285;28;19929;-63
2022/12/01 01:51:32;;;;;;;;;;;;;;;;;;10497803;28;20443;-63
2022/12/01 01:56:34;;;;;;;;;;;;;;;;;;10497673;28;19925;-63
2022/12/01 02:01:36;;;;;;;;;;;;;;;;;;10498566;28;19970;-64
2022/12/01 02:06:38;;;;;;;;;;;;;;;;;;10497377;28;20326;-63
2022/12/01 02:11:47;;;;;;;;;;;;;;;;;;10498078;28;19951;-63
2022/12/01 02:16:49;;;;;;;;;;;;;;;;;;10497262;28;20307;-64
2022/12/01 02:21:51;;;;;;;;;;;;;;;;;;10498009;28;19928;-63
2022/12/01 02:26:53;;;;;;;;;;;;;;;;;;10497025;28;20267;-63
2022/12/01 02:31:55;;;;;;;;;;;;;;;;;;10497697;28;19924;-63
2022/12/01 02:36:57;;;;;;;;;;;;;;;;;;10496901;28;20379;-63
2022/12/01 02:41:59;;;;;;;;;;;;;;;;;;10496933;28;19970;-63
2022/12/01 02:47:01;;;;;;;;;;;;;;;;;;10498932;28;19928;-63
2022/12/01 02:52:03;;;;;;;;;;;;;;;;;;10503766;28;20276;-64
2022/12/01 02:57:05;;;;;;;;;;;;;;;;;;10504446;28;19924;-63
2022/12/01 03:02:08;;;;;;;;;;;;;;;;;;10503626;28;20325;-64
2022/12/01 03:07:10;;;;;;;;;;;;;;;;;;10502925;28;19924;-64
2022/12/01 03:12:13;;;;;;;;;;;;;;;;;;10502112;28;20367;-63
2022/12/01 03:17:15;;;;;;;;;;;;;;;;;;10503283;28;20334;-64
2022/12/01 03:22:17;;;;;;;;;;;;;;;;;;10503469;28;19928;-63
2022/12/01 03:27:19;;;;;;;;;;;;;;;;;;10503488;28;20038;-63
2022/12/01 03:32:21;;;;;;;;;;;;;;;;;;10502834;28;19928;-63
2022/12/01 03:37:23;;;;;;;;;;;;;;;;;;10503202;28;19929;-64
2022/12/01 03:42:25;;;;;;;;;;;;;;;;;;10502031;28;19924;-63
2022/12/01 03:47:29;;;;;;;;;;;;;;;;;;10502385;28;19928;-63
2022/12/01 03:52:31;;;;;;;;;;;;;;;;;;10502362;28;19932;-64
2022/12/01 03:57:33;;;;;;;;;;;;;;;;;;10500738;28;19925;-63
2022/12/01 04:02:36;;;;;;;;;;;;;;;;;;10501128;28;19924;-63
2022/12/01 04:07:38;;;;;;;;;;;;;;;;;;10501811;28;19924;-63
2022/12/01 04:12:41;;;;;;;;;;;;;;;;;;10500781;28;20505;-64
2022/12/01 04:17:43;;;;;;;;;;;;;;;;;;10501323;28;19924;-64
2022/12/01 04:22:45;;;;;;;;;;;;;;;;;;10499847;28;20341;-63
2022/12/01 04:27:47;;;;;;;;;;;;;;;;;;10500734;28;19924;-64
2022/12/01 04:32:49;;;;;;;;;;;;;;;;;;10499489;28;19974;-63
2022/12/01 04:37:51;;;;;;;;;;;;;;;;;;10500034;28;20326;-63
2022/12/01 04:42:54;;;;;;;;;;;;;;;;;;10500150;28;19986;-63
2022/12/01 04:47:56;;;;;;;;;;;;;;;;;;10499404;28;19928;-64
2022/12/01 04:52:58;;;;;;;;;;;;;;;;;;10499165;28;19932;-64
2022/12/01 04:58:01;;;;;;;;;;;;;;;;;;10499807;28;19928;-64
2022/12/01 05:03:03;;;;;;;;;;;;;;;;;;10499535;28;19987;-63
2022/12/01 05:08:05;;;;;;;;;;;;;;;;;;10498941;28;19928;-63
2022/12/01 05:13:07;;;;;;;;;;;;;;;;;;10498288;28;19925;-63
2022/12/01 05:18:10;;;;;;;;;;;;;;;;;;10499274;28;19925;-64
2022/12/01 05:23:12;;;;;;;;;;;;;;;;;;10498980;28;19934;-64
2022/12/01 05:28:17;;;;;;;;;;;;;;;;;;10499063;28;19924;-64
2022/12/01 05:33:19;;;;;;;;;;;;;;;;;;10498183;28;19978;-63
2022/12/01 05:38:21;;;;;;;;;;;;;;;;;;10497801;28;19974;-64
2022/12/01 05:43:24;;;;;;;;;;;;;;;;;;10497892;28;20425;-64
2022/12/01 05:48:30;;;;;;;;;;;;;;;;;;10498122;28;20007;-63
2022/12/01 05:53:32;;;;;;;;;;;;;;;;;;10497722;28;20326;-63
2022/12/01 05:58:34;;;;;;;;;;;;;;;;;;10497862;28;20379;-63
2022/12/01 06:03:36;;;;;;;;;;;;;;;;;;10498240;28;19924;-63
2022/12/01 06:08:38;;;;;;;;;;;;;;;;;;10498311;28;19982;-63
2022/12/01 06:13:40;;;;;;;;;;;;;;;;;;10497356;28;20432;-64
2022/12/01 06:18:42;;;;;;;;;;;;;;;;;;10498112;28;19936;-64
2022/12/01 06:23:44;;;;;;;;;;;;;;;;;;10502334;28;19928;-63
2022/12/01 06:28:46;;;;;;;;;;;;;;;;;;10505707;28;19924;-63
2022/12/01 06:33:48;;;;;;;;;;;;;;;;;;10505050;28;19950;-63
2022/12/01 06:38:50;;;;;;;;;;;;;;;;;;10504754;28;20338;-64
2022/12/01 06:43:53;;;;;;;;;;;;;;;;;;10504962;28;19974;-63
2022/12/01 06:48:55;;;;;;;;;;;;;;;;;;10504591;28;19924;-63
2022/12/01 06:53:57;;;;;;;;;;;;;;;;;;10503922;28;20295;-63
2022/12/01 06:59:06;;;;;;;;;;;;;;;;;;10504567;28;19978;-63
2022/12/01 07:04:08;;;;;;;;;;;;;;;;;;10501793;28;20294;-63
2022/12/01 07:09:10;;;;;;;;;;;;;;;;;;10504227;28;19925;-64
2022/12/01 07:14:12;;;;;;;;;;;;;;;;;;10502792;28;20387;-63
2022/12/01 07:19:14;;;;;;;;;;;;;;;;;;10503301;28;19931;-63
2022/12/01 07:24:16;;;;;;;;;;;;;;;;;;10503463;28;19924;-63
2022/12/01 07:29:18;;;;;;;;;;;;;;;;;;10502639;28;19929;-63
2022/12/01 07:34:20;;;;;;;;;;;;;;;;;;10502233;28;20303;-63
2022/12/01 07:39:22;;;;;;;;;;;;;;;;;;10503097;28;19936;-63
2022/12/01 07:44:24;;;;;;;;;;;;;;;;;;10501929;28;20432;-64
2022/12/01 07:49:26;;;;;;;;;;;;;;;;;;10501740;28;20371;-63
2022/12/01 07:54:28;;;;;;;;;;;;;;;;;;10501584;28;20280;-63
2022/12/01 07:59:30;;;;;;;;;;;;;;;;;;10502235;28;19974;-63
2022/12/01 08:04:32;;;;;;;;;;;;;;;;;;10500179;28;19928;-63
2022/12/01 08:09:35;;;;;;;;;;;;;;;;;;10501153;28;19932;-63
2022/12/01 08:14:37;;;;;;;;;;;;;;;;;;10500639;28;20367;-63
2022/12/01 08:19:39;;;;;;;;;;;;;;;;;;10501140;28;19932;-63
2022/12/01 08:24:41;;;;;;;;;;;;;;;;;;10500470;28;19994;-63
2022/12/01 08:29:43;;;;;;;;;;;;;;;;;;10500749;28;19978;-63
2022/12/01 08:34:45;;;;;;;;;;;;;;;;;;10499925;28;19970;-63
2022/12/01 08:39:53;;;;;;;;;;;;;;;;;;10499743;28;20371;-63
2022/12/01 08:44:55;;;;;;;;;;;;;;;;;;10499961;28;19974;-64
2022/12/01 08:49:58;;;;;;;;;;;;;;;;;;10499569;28;19963;-63
2022/12/01 08:55:00;;;;;;;;;;;;;;;;;;10499519;28;19938;-63
2022/12/01 09:00:02;;;;;;;;;;;;;;;;;;10498993;28;19924;-63
2022/12/01 09:05:04;;;;;;;;;;;;;;;;;;10486627;22;19924;-64
2022/12/01 09:10:06;;;;;;;;;;;;;;;;;;10457448;28;19932;-64
2022/12/01 09:15:08;;;;;;;;;;;;;;;;;;10458137;28;19931;-64
2022/12/01 09:20:11;;;;;;;;;;;;;;;;;;10457952;28;19925;-66
2022/12/01 09:25:13;;;;;;;;;;;;;;;;;;10457834;28;19955;-66
2022/12/01 09:30:15;;;;;;;;;;;;;;;;;;10457710;28;19924;-66
2022/12/01 09:35:17;;;;;;;;;;;;;;;;;;10456964;28;20391;-66
2022/12/01 09:40:24;;;;;;;;;;;;;;;;;;10457489;28;19924;-66
2022/12/01 09:45:26;;;;;;;;;;;;;;;;;;10456680;28;20003;-66
2022/12/01 09:50:29;;;;;;;;;;;;;;;;;;10457213;28;19955;-66
2022/12/01 09:55:31;;;;;;;;;;;;;;;;;;10457214;28;19924;-66
2022/12/01 10:00:33;;;;;;;;;;;;;;;;;;10465602;28;19935;-66
2022/12/01 10:05:35;;;;;;;;;;;;;;;;;;10464698;28;19924;-66
2022/12/01 10:10:37;;;;;;;;;;;;;;;;;;10465204;28;19931;-66
2022/12/01 10:15:39;;;;;;;;;;;;;;;;;;10464330;28;20418;-66
2022/12/01 10:20:41;;;;;;;;;;;;;;;;;;10464197;28;19951;-66
2022/12/01 10:25:43;;;;;;;;;;;;;;;;;;10464536;28;19932;-66
2022/12/01 10:30:45;;;;;;;;;;;;;;;;;;10463833;28;20330;-66
2022/12/01 10:35:47;;;;;;;;;;;;;;;;;;10463620;28;19928;-66
2022/12/01 10:40:50;;;;;;;;;;;;;;;;;;10464074;28;19924;-66
2022/12/01 10:45:52;;;;;;;;;;;;;;;;;;10463118;28;19925;-66
2022/12/01 10:50:54;;;;;;;;;;;;;;;;;;10463650;28;19925;-66
2022/12/01 10:55:56;;;;;;;;;;;;;;;;;;10463494;28;19924;-66
2022/12/01 11:00:58;;;;;;;;;;;;;;;;;;10463327;28;19932;-66
2022/12/01 11:06:02;;;;;;;;;;;;;;;;;;10462249;28;19978;-66
2022/12/01 11:11:04;;;;;;;;;;;;;;;;;;10461860;28;19990;-66
2022/12/01 11:16:06;;;;;;;;;;;;;;;;;;10462042;28;19932;-66
2022/12/01 11:21:08;;;;;;;;;;;;;;;;;;10461346;28;19925;-66
2022/12/01 11:26:10;;;;;;;;;;;;;;;;;;10462239;28;19925;-66
2022/12/01 11:31:12;;;;;;;;;;;;;;;;;;10460355;28;20044;-66
2022/12/01 11:36:14;;;;;;;;;;;;;;;;;;10461379;28;19929;-66
2022/12/01 11:41:17;;;;;;;;;;;;;;;;;;10461715;28;20016;-66
2022/12/01 11:46:19;;;;;;;;;;;;;;;;;;10460826;28;19924;-66
2022/12/01 11:51:21;;;;;;;;;;;;;;;;;;10460651;28;20011;-66
2022/12/01 11:56:23;;;;;;;;;;;;;;;;;;10461112;28;19928;-66
2022/12/01 12:01:25;;;;;;;;;;;;;;;;;;10460268;28;20319;-66
2022/12/01 12:06:27;;;;;;;;;;;;;;;;;;10459839;28;19925;-66
2022/12/01 12:11:45;;;;;;;;;;;;;;;;;;10459921;28;19925;-66
2022/12/01 12:16:47;;;;;;;;;;;;;;;;;;10459676;28;19924;-66
2022/12/01 12:21:49;;;;;;;;;;;;;;;;;;10458628;28;19929;-66
2022/12/01 12:26:51;;;;;;;;;;;;;;;;;;10459212;28;19947;-66
2022/12/01 12:31:53;;;;;;;;;;;;;;;;;;10459082;28;19974;-66
2022/12/01 12:36:55;;;;;;;;;;;;;;;;;;10458833;28;19928;-66
2022/12/01 12:41:57;;;;;;;;;;;;;;;;;;10458641;28;20441;-66
2022/12/01 12:46:59;;;;;;;;;;;;;;;;;;10458451;28;20260;-67
2022/12/01 12:52:01;;;;;;;;;;;;;;;;;;10458988;28;19925;-66
2022/12/01 12:57:09;;;;;;;;;;;;;;;;;;10458191;28;20295;-67
2022/12/01 13:02:11;;;;;;;;;;;;;;;;;;10458575;28;19928;-66
2022/12/01 13:07:13;;;;;;;;;;;;;;;;;;10457618;28;19929;-67
2022/12/01 13:12:15;;;;;;;;;;;;;;;;;;10458244;28;19925;-66
2022/12/01 13:17:17;;;;;;;;;;;;;;;;;;10456253;28;19928;-67
2022/12/01 13:22:19;;;;;;;;;;;;;;;;;;10457923;28;19978;-66
2022/12/01 13:27:21;;;;;;;;;;;;;;;;;;10457101;28;19925;-66
2022/12/01 13:32:24;;;;;;;;;;;;;;;;;;10457120;28;19935;-67
2022/12/01 13:37:26;;;;;;;;;;;;;;;;;;10456913;28;19924;-67
2022/12/01 13:42:30;;;;;;;;;;;;;;;;;;10457464;28;19928;-66
2022/12/01 13:47:33;;;;;;;;;;;;;;;;;;10456852;28;19974;-66
2022/12/01 13:52:35;;;;;;;;;;;;;;;;;;10457247;28;19978;-67
2022/12/01 13:57:37;;;;;;;;;;;;;;;;;;10457134;28;19978;-67
2022/12/01 14:02:39;;;;;;;;;;;;;;;;;;10456282;28;19930;-66
2022/12/01 14:07:41;;;;;;;;;;;;;;;;;;10456277;28;20364;-66
2022/12/01 14:12:43;;;;;;;;;;;;;;;;;;10456874;28;19928;-67
2022/12/01 14:17:46;;;;;;;;;;;;;;;;;;10456719;28;19976;-66
2022/12/01 14:22:49;;;;;;;;;;;;;;;;;;10456628;28;19924;-67
2022/12/01 14:27:51;;;;;;;;;;;;;;;;;;10455422;28;19950;-66
2022/12/01 14:32:53;;;;;;;;;;;;;;;;;;10456299;28;19935;-66
2022/12/01 14:37:55;;;;;;;;;;;;;;;;;;10455540;28;19925;-66
2022/12/01 14:48:18;;;;;;;;;;;;;;;;;;10463739;28;19925;-66
2022/12/01 14:53:20;;;;;;;;;;;;;;;;;;10445991;28;19925;-65
2022/12/01 14:58:22;;;;;;;;;;;;;;;;;;10463168;28;19925;-65
2022/12/01 15:03:24;;;;;;;;;;;;;;;;;;10462907;28;19925;-66
2022/12/01 15:08:32;;;;;;;;;;;;;;;;;;10462873;28;19924;-66
2022/12/01 15:13:43;;;;;;;;;;;;;;;;;;10462113;28;19955;-65
2022/12/01 15:18:45;;;;;;;;;;;;;;;;;;10462027;28;19925;-65
2022/12/01 15:23:47;;;;;;;;;;;;;;;;;;10461777;28;19925;-66
2022/12/01 15:28:49;;;;;;;;;;;;;;;;;;10461890;28;19974;-66
2022/12/01 15:33:51;;;;;;;;;;;;;;;;;;10462054;28;19925;-65
2022/12/01 15:38:53;;;;;;;;;;;;;;;;;;10461522;28;19936;-65
2022/12/01 15:43:55;;;;;;;;;;;;;;;;;;10461014;28;20379;-65
2022/12/01 15:48:57;;;;;;;;;;;;;;;;;;10461394;28;19925;-65
2022/12/01 15:53:59;;;;;;;;;;;;;;;;;;10459198;28;20292;-65
2022/12/01 15:59:02;;;;;;;;;;;;;;;;;;10460544;28;19924;-65
2022/12/01 16:04:04;;;;;;;;;;;;;;;;;;10442237;28;19936;-65
2022/12/01 16:09:06;;;;;;;;;;;;;;;;;;10459967;28;20015;-65
2022/12/01 16:14:08;;;;;;;;;;;;;;;;;;10459793;28;19995;-65
2022/12/01 16:19:10;;;;;;;;;;;;;;;;;;10460018;28;19931;-65
2022/12/01 16:24:12;;;;;;;;;;;;;;;;;;10459972;28;19924;-65
2022/12/01 16:29:14;;;;;;;;;;;;;;;;;;10458953;28;19929;-65
2022/12/01 16:34:17;;;;;;;;;;;;;;;;;;10459581;28;19951;-65
2022/12/01 16:39:39;;;;;;;;;;;;;;;;;;10459158;28;20011;-66
2022/12/01 16:44:41;;;;;;;;;;;;;;;;;;10459314;28;19974;-65
2022/12/01 16:49:43;;;;;;;;;;;;;;;;;;10458698;28;19928;-65
2022/12/01 16:54:45;;;;;;;;;;;;;;;;;;10458287;28;20326;-65
2022/12/01 16:59:47;;;;;;;;;;;;;;;;;;10458445;28;19925;-65
2022/12/01 17:04:50;;;;;;;;;;;;;;;;;;10457587;28;19925;-65
2022/12/01 17:09:52;;;;;;;;;;;;;;;;;;10458302;28;19958;-65
2022/12/01 17:14:54;;;;;;;;;;;;;;;;;;10457338;28;19955;-65
2022/12/01 17:19:56;;;;;;;;;;;;;;;;;;10457772;28;19925;-65
2022/12/01 17:25:01;;;;;;;;;;;;;;;;;;10457862;28;20283;-65
2022/12/01 17:30:03;;;;;;;;;;;;;;;;;;10454555;28;19925;-65
2022/12/01 17:35:05;;;;;;;;;;;;;;;;;;10456236;28;19932;-65
2022/12/01 17:40:07;;;;;;;;;;;;;;;;;;10456901;28;19924;-65
2022/12/01 17:45:09;;;;;;;;;;;;;;;;;;10457072;28;19951;-65
2022/12/01 17:50:11;;;;;;;;;;;;;;;;;;10457096;28;19925;-65
2022/12/01 17:55:13;;;;;;;;;;;;;;;;;;10439516;28;20002;-65
2022/12/01 18:00:15;;;;;;;;;;;;;;;;;;10456896;28;19925;-65
2022/12/01 18:05:18;;;;;;;;;;;;;;;;;;10456413;28;19925;-65
2022/12/01 18:10:20;;;;;;;;;;;;;;;;;;10456306;28;20295;-65
2022/12/01 18:15:23;;;;;;;;;;;;;;;;;;10456520;28;19932;-65
2022/12/01 18:20:27;;;;;;;;;;;;;;;;;;10462430;28;19994;-65
2022/12/01 18:25:29;;;;;;;;;;;;;;;;;;10464735;28;19925;-65
2022/12/01 18:30:31;;;;;;;;;;;;;;;;;;10464587;28;19925;-65
2022/12/01 18:35:33;;;;;;;;;;;;;;;;;;10446071;28;19925;-65
2022/12/01 18:40:35;;;;;;;;;;;;;;;;;;10463159;28;20498;-65
2022/12/01 18:45:37;;;;;;;;;;;;;;;;;;10463941;28;19929;-65
2022/12/01 18:50:39;;;;;;;;;;;;;;;;;;10463446;28;19928;-65
2022/12/01 18:55:41;;;;;;;;;;;;;;;;;;10463556;28;19951;-65
2022/12/01 19:00:43;;;;;;;;;;;;;;;;;;10462510;28;20371;-65
2022/12/01 19:05:46;;;;;;;;;;;;;;;;;;10462734;28;19963;-65
2022/12/01 19:10:48;;;;;;;;;;;;;;;;;;10462682;28;19970;-65
2022/12/01 19:15:50;;;;;;;;;;;;;;;;;;10462134;28;19932;-65
2022/12/01 19:20:52;;;;;;;;;;;;;;;;;;10462393;28;19925;-65
2022/12/01 19:25:54;;;;;;;;;;;;;;;;;;10461808;28;19937;-65
2022/12/01 19:30:56;;;;;;;;;;;;;;;;;;10461270;28;19924;-65
2022/12/01 19:35:58;;;;;;;;;;;;;;;;;;10461146;28;19924;-65
2022/12/01 19:41:00;;;;;;;;;;;;;;;;;;10461835;28;19924;-65
2022/12/01 19:46:02;;;;;;;;;;;;;;;;;;10461678;28;19924;-65
2022/12/01 19:51:04;;;;;;;;;;;;;;;;;;10461066;28;19936;-65
2022/12/01 19:56:07;;;;;;;;;;;;;;;;;;10459425;28;19925;-65
2022/12/01 20:01:09;;;;;;;;;;;;;;;;;;10460343;28;19924;-65
2022/12/01 20:06:11;;;;;;;;;;;;;;;;;;10455170;28;19925;-65
2022/12/01 20:11:13;;;;;;;;;;;;;;;;;;10418717;28;20395;-65
2022/12/01 20:16:15;;;;;;;;;;;;;;;;;;10418601;28;19932;-65
2022/12/01 20:21:18;;;;;;;;;;;;;;;;;;10447445;28;19924;-65
2022/12/01 20:26:20;;;;;;;;;;;;;;;;;;10460102;28;19928;-65
2022/12/01 20:31:25;;;;;;;;;;;;;;;;;;10459157;28;19925;-65
2022/12/01 20:36:27;;;;;;;;;;;;;;;;;;10459026;28;20295;-65
2022/12/01 20:41:30;;;;;;;;;;;;;;;;;;10457681;28;19935;-65
2022/12/01 20:46:32;;;;;;;;;;;;;;;;;;10454861;28;19928;-65
2022/12/01 20:51:34;;;;;;;;;;;;;;;;;;10449087;28;19998;-65
2022/12/01 20:56:38;;;;;;;;;;;;;;;;;;10455625;28;21363;-65
2022/12/01 21:01:40;;;;;;;;;;;;;;;;;;10438407;28;19982;-66
2022/12/01 21:06:42;;;;;;;;;;;;;;;;;;10456304;28;19978;-65
2022/12/01 21:17:05;;;;;;;;;;;;;;;;;;10472351;22;19917;-64
2022/12/01 21:22:07;;;;;;;;;;;;;;;;;;10456982;28;19931;-65
2022/12/01 21:27:09;;;;;;;;;;;;;;;;;;10457193;28;19925;-64
2022/12/01 21:32:11;;;;;;;;;;;;;;;;;;10456668;28;20386;-65
2022/12/01 21:37:13;;;;;;;;;;;;;;;;;;10457576;28;19933;-64
2022/12/01 21:42:15;;;;;;;;;;;;;;;;;;10457190;28;19924;-64
2022/12/01 21:47:17;;;;;;;;;;;;;;;;;;10457140;28;19929;-64
2022/12/01 21:52:20;;;;;;;;;;;;;;;;;;10459668;28;20329;-64
2022/12/01 21:57:22;;;;;;;;;;;;;;;;;;10464305;28;19971;-65
2022/12/01 22:02:24;;;;;;;;;;;;;;;;;;10465072;28;19936;-64
2022/12/01 22:07:26;;;;;;;;;;;;;;;;;;10465413;28;19925;-64
2022/12/01 22:12:28;;;;;;;;;;;;;;;;;;10464646;28;20395;-64
2022/12/01 22:17:30;;;;;;;;;;;;;;;;;;10446302;28;20307;-65
2022/12/01 22:22:32;;;;;;;;;;;;;;;;;;10464836;28;19932;-64
2022/12/01 22:27:34;;;;;;;;;;;;;;;;;;10464630;28;19971;-64
2022/12/01 22:32:36;;;;;;;;;;;;;;;;;;10464552;28;19924;-64
2022/12/01 22:37:38;;;;;;;;;;;;;;;;;;10464452;28;19925;-64
2022/12/01 22:42:40;;;;;;;;;;;;;;;;;;10464204;28;19978;-64
2022/12/01 22:47:42;;;;;;;;;;;;;;;;;;10445627;28;19951;-64
2022/12/01 22:52:44;;;;;;;;;;;;;;;;;;10463549;28;19924;-64
2022/12/01 22:57:46;;;;;;;;;;;;;;;;;;10462948;28;19932;-64
2022/12/01 23:02:49;;;;;;;;;;;;;;;;;;10462929;28;19928;-64
2022/12/01 23:07:51;;;;;;;;;;;;;;;;;;10462341;28;20287;-65
2022/12/01 23:12:53;;;;;;;;;;;;;;;;;;10463116;28;19971;-64
2022/12/01 23:17:55;;;;;;;;;;;;;;;;;;10462620;28;19928;-64
2022/12/01 23:22:57;;;;;;;;;;;;;;;;;;10462497;28;19925;-64
2022/12/01 23:27:59;;;;;;;;;;;;;;;;;;10461767;28;20260;-64
2022/12/01 23:33:02;;;;;;;;;;;;;;;;;;10461487;28;20368;-64
2022/12/01 23:38:04;;;;;;;;;;;;;;;;;;10461210;28;20441;-64
2022/12/01 23:43:06;;;;;;;;;;;;;;;;;;10461666;28;19995;-64
2022/12/01 23:48:08;;;;;;;;;;;;;;;;;;10461569;28;19974;-64
2022/12/01 23:53:12;;;;;;;;;;;;;;;;;;10461313;28;19978;-64
2022/12/01 23:58:14;;;;;;;;;;;;;;;;;;10461079;28;19937;-64
